sensor_id;sensor_type;location;lat;lon;timestamp;P1;durP1;ratioP1;P2;durP2;ratioP2
10801;SDS011;5453;50.852;7.102;2022-08-19T00:01:14;13.20;;;8.32;;
10801;SDS011;5453;50.852;7.102;2022-08-19T00:03:46;14.27;;;8.60;;
10801;SDS011;5453;50.852;7.102;2022-08-19T00:06:19;12.32;;;8.23;;
10801;SDS011;5453;50.852;7.102;2022-08-19T00:08:51;12.65;;;7.78;;
10801;SDS011;5453;50.852;7.102;2022-08-19T00:11:24;12.43;;;8.13;;
10801;SDS011;5453;50.852;7.102;2022-08-19T00:13:57;12.68;;;8.57;;
10801;SDS011;5453;50.852;7.102;2022-08-19T00:16:30;12.38;;;7.75;;
10801;SDS011;5453;50.852;7.102;2022-08-19T00:19:03;11.10;;;7.95;;
10801;SDS011;5453;50.852;7.102;2022-08-19T00:21:35;13.20;;;8.55;;
10801;SDS011;5453;50.852;7.102;2022-08-19T00:24:10;12.38;;;8.55;;
10801;SDS011;5453;50.852;7.102;2022-08-19T00:26:46;12.65;;;8.23;;
10801;SDS011;5453;50.852;7.102;2022-08-19T00:29:19;11.88;;;7.85;;
10801;SDS011;5453;50.852;7.102;2022-08-19T00:31:52;13.43;;;8.40;;
10801;SDS011;5453;50.852;7.102;2022-08-19T00:34:25;13.68;;;8.50;;
10801;SDS011;5453;50.852;7.102;2022-08-19T00:36:58;12.07;;;8.30;;
10801;SDS011;5453;50.852;7.102;2022-08-19T00:39:30;12.50;;;8.00;;
10801;SDS011;5453;50.852;7.102;2022-08-19T00:42:04;13.00;;;8.18;;
10801;SDS011;5453;50.852;7.102;2022-08-19T00:44:37;12.98;;;8.25;;
10801;SDS011;5453;50.852;7.102;2022-08-19T00:47:09;13.80;;;8.38;;
10801;SDS011;5453;50.852;7.102;2022-08-19T00:49:43;12.05;;;7.70;;
10801;SDS011;5453;50.852;7.102;2022-08-19T00:52:22;12.88;;;7.85;;
10801;SDS011;5453;50.852;7.102;2022-08-19T00:54:59;12.07;;;7.90;;
10801;SDS011;5453;50.852;7.102;2022-08-19T00:57:40;13.68;;;8.43;;
10801;SDS011;5453;50.852;7.102;2022-08-19T01:00:17;13.70;;;9.10;;
10801;SDS011;5453;50.852;7.102;2022-08-19T01:02:51;12.18;;;7.82;;
10801;SDS011;5453;50.852;7.102;2022-08-19T01:05:24;12.80;;;8.27;;
10801;SDS011;5453;50.852;7.102;2022-08-19T01:07:59;12.90;;;7.85;;
10801;SDS011;5453;50.852;7.102;2022-08-19T01:10:36;12.02;;;7.90;;
10801;SDS011;5453;50.852;7.102;2022-08-19T01:13:15;13.07;;;9.52;;
10801;SDS011;5453;50.852;7.102;2022-08-19T01:15:50;12.73;;;7.97;;
10801;SDS011;5453;50.852;7.102;2022-08-19T01:18:26;12.85;;;8.00;;
10801;SDS011;5453;50.852;7.102;2022-08-19T01:21:02;15.18;;;8.65;;
10801;SDS011;5453;50.852;7.102;2022-08-19T01:23:41;13.68;;;8.32;;
10801;SDS011;5453;50.852;7.102;2022-08-19T01:26:15;13.43;;;8.30;;
10801;SDS011;5453;50.852;7.102;2022-08-19T01:28:51;13.77;;;8.50;;
10801;SDS011;5453;50.852;7.102;2022-08-19T01:31:32;12.32;;;8.15;;
10801;SDS011;5453;50.852;7.102;2022-08-19T01:34:06;14.00;;;8.63;;
10801;SDS011;5453;50.852;7.102;2022-08-19T01:36:42;14.18;;;8.45;;
10801;SDS011;5453;50.852;7.102;2022-08-19T01:39:20;13.25;;;8.10;;
10801;SDS011;5453;50.852;7.102;2022-08-19T01:41:56;14.18;;;8.45;;
10801;SDS011;5453;50.852;7.102;2022-08-19T01:44:33;12.80;;;8.27;;
10801;SDS011;5453;50.852;7.102;2022-08-19T01:47:06;12.95;;;8.32;;
10801;SDS011;5453;50.852;7.102;2022-08-19T01:49:41;12.90;;;8.25;;
10801;SDS011;5453;50.852;7.102;2022-08-19T01:52:14;13.32;;;8.75;;
10801;SDS011;5453;50.852;7.102;2022-08-19T01:54:50;12.43;;;8.13;;
10801;SDS011;5453;50.852;7.102;2022-08-19T01:57:23;13.85;;;8.48;;
10801;SDS011;5453;50.852;7.102;2022-08-19T01:59:57;14.32;;;9.13;;
10801;SDS011;5453;50.852;7.102;2022-08-19T02:02:41;15.35;;;9.40;;
10801;SDS011;5453;50.852;7.102;2022-08-19T02:05:15;15.32;;;9.57;;
10801;SDS011;5453;50.852;7.102;2022-08-19T02:07:49;19.13;;;10.27;;
10801;SDS011;5453;50.852;7.102;2022-08-19T02:10:24;13.93;;;9.20;;
10801;SDS011;5453;50.852;7.102;2022-08-19T02:12:57;14.98;;;9.32;;
10801;SDS011;5453;50.852;7.102;2022-08-19T02:15:31;12.43;;;8.52;;
10801;SDS011;5453;50.852;7.102;2022-08-19T02:18:04;14.85;;;8.48;;
10801;SDS011;5453;50.852;7.102;2022-08-19T02:20:39;15.38;;;8.88;;
10801;SDS011;5453;50.852;7.102;2022-08-19T02:23:14;13.00;;;8.27;;
10801;SDS011;5453;50.852;7.102;2022-08-19T02:25:49;13.40;;;8.55;;
10801;SDS011;5453;50.852;7.102;2022-08-19T02:28:24;14.20;;;8.32;;
10801;SDS011;5453;50.852;7.102;2022-08-19T02:30:57;12.73;;;8.18;;
10801;SDS011;5453;50.852;7.102;2022-08-19T02:33:38;13.65;;;8.73;;
10801;SDS011;5453;50.852;7.102;2022-08-19T02:36:11;12.65;;;7.80;;
10801;SDS011;5453;50.852;7.102;2022-08-19T02:38:46;13.80;;;9.20;;
10801;SDS011;5453;50.852;7.102;2022-08-19T02:41:20;12.98;;;8.45;;
10801;SDS011;5453;50.852;7.102;2022-08-19T02:43:56;14.73;;;8.90;;
10801;SDS011;5453;50.852;7.102;2022-08-19T02:46:32;13.57;;;8.38;;
10801;SDS011;5453;50.852;7.102;2022-08-19T02:49:06;14.13;;;8.50;;
10801;SDS011;5453;50.852;7.102;2022-08-19T02:51:41;12.48;;;8.35;;
10801;SDS011;5453;50.852;7.102;2022-08-19T02:54:16;13.20;;;8.05;;
10801;SDS011;5453;50.852;7.102;2022-08-19T02:56:50;13.48;;;8.00;;
10801;SDS011;5453;50.852;7.102;2022-08-19T03:01:56;12.95;;;8.05;;
10801;SDS011;5453;50.852;7.102;2022-08-19T03:04:32;13.75;;;8.75;;
10801;SDS011;5453;50.852;7.102;2022-08-19T03:07:05;14.55;;;9.07;;
10801;SDS011;5453;50.852;7.102;2022-08-19T03:09:37;12.50;;;8.13;;
10801;SDS011;5453;50.852;7.102;2022-08-19T03:12:12;13.55;;;8.02;;
10801;SDS011;5453;50.852;7.102;2022-08-19T03:14:44;13.48;;;8.18;;
10801;SDS011;5453;50.852;7.102;2022-08-19T03:17:18;14.23;;;9.00;;
10801;SDS011;5453;50.852;7.102;2022-08-19T03:19:51;14.00;;;8.65;;
10801;SDS011;5453;50.852;7.102;2022-08-19T03:22:24;12.65;;;8.30;;
10801;SDS011;5453;50.852;7.102;2022-08-19T03:24:57;14.20;;;8.77;;
10801;SDS011;5453;50.852;7.102;2022-08-19T03:27:33;15.55;;;8.55;;
10801;SDS011;5453;50.852;7.102;2022-08-19T03:30:06;12.85;;;7.95;;
10801;SDS011;5453;50.852;7.102;2022-08-19T03:32:41;14.23;;;8.20;;
10801;SDS011;5453;50.852;7.102;2022-08-19T03:35:15;13.20;;;7.88;;
10801;SDS011;5453;50.852;7.102;2022-08-19T03:37:50;14.52;;;8.85;;
10801;SDS011;5453;50.852;7.102;2022-08-19T03:40:23;14.00;;;8.25;;
10801;SDS011;5453;50.852;7.102;2022-08-19T03:42:58;12.88;;;7.70;;
10801;SDS011;5453;50.852;7.102;2022-08-19T03:45:33;13.80;;;9.23;;
10801;SDS011;5453;50.852;7.102;2022-08-19T03:48:06;13.32;;;8.40;;
10801;SDS011;5453;50.852;7.102;2022-08-19T03:50:39;13.48;;;8.32;;
10801;SDS011;5453;50.852;7.102;2022-08-19T03:53:12;12.23;;;7.90;;
10801;SDS011;5453;50.852;7.102;2022-08-19T03:55:45;14.27;;;8.90;;
10801;SDS011;5453;50.852;7.102;2022-08-19T03:58:19;16.50;;;9.05;;
10801;SDS011;5453;50.852;7.102;2022-08-19T04:03:25;12.75;;;8.57;;
10801;SDS011;5453;50.852;7.102;2022-08-19T04:05:58;14.35;;;8.38;;
10801;SDS011;5453;50.852;7.102;2022-08-19T04:08:30;12.55;;;8.15;;
10801;SDS011;5453;50.852;7.102;2022-08-19T04:11:06;13.95;;;8.35;;
10801;SDS011;5453;50.852;7.102;2022-08-19T04:13:41;14.85;;;9.18;;
10801;SDS011;5453;50.852;7.102;2022-08-19T04:16:14;13.75;;;8.50;;
10801;SDS011;5453;50.852;7.102;2022-08-19T04:18:48;13.38;;;8.48;;
10801;SDS011;5453;50.852;7.102;2022-08-19T04:21:21;12.52;;;8.27;;
10801;SDS011;5453;50.852;7.102;2022-08-19T04:23:57;13.88;;;8.40;;
10801;SDS011;5453;50.852;7.102;2022-08-19T04:26:31;12.52;;;8.15;;
10801;SDS011;5453;50.852;7.102;2022-08-19T04:29:09;13.98;;;8.32;;
10801;SDS011;5453;50.852;7.102;2022-08-19T04:31:44;15.27;;;10.05;;
10801;SDS011;5453;50.852;7.102;2022-08-19T04:34:18;16.67;;;9.35;;
10801;SDS011;5453;50.852;7.102;2022-08-19T04:36:54;14.55;;;8.50;;
10801;SDS011;5453;50.852;7.102;2022-08-19T04:39:30;15.38;;;9.23;;
10801;SDS011;5453;50.852;7.102;2022-08-19T04:42:20;14.82;;;8.70;;
10801;SDS011;5453;50.852;7.102;2022-08-19T04:45:14;14.30;;;8.25;;
10801;SDS011;5453;50.852;7.102;2022-08-19T04:47:47;14.57;;;8.38;;
10801;SDS011;5453;50.852;7.102;2022-08-19T04:50:21;14.93;;;9.23;;
10801;SDS011;5453;50.852;7.102;2022-08-19T04:52:54;15.85;;;9.95;;
10801;SDS011;5453;50.852;7.102;2022-08-19T04:55:27;15.20;;;9.32;;
10801;SDS011;5453;50.852;7.102;2022-08-19T04:58:01;14.32;;;9.18;;
10801;SDS011;5453;50.852;7.102;2022-08-19T05:00:40;13.73;;;8.32;;
10801;SDS011;5453;50.852;7.102;2022-08-19T05:03:13;15.27;;;9.07;;
10801;SDS011;5453;50.852;7.102;2022-08-19T05:05:48;16.73;;;9.55;;
10801;SDS011;5453;50.852;7.102;2022-08-19T05:08:20;19.00;;;10.88;;
10801;SDS011;5453;50.852;7.102;2022-08-19T05:10:53;16.80;;;9.73;;
10801;SDS011;5453;50.852;7.102;2022-08-19T05:13:27;15.88;;;9.77;;
10801;SDS011;5453;50.852;7.102;2022-08-19T05:16:01;18.95;;;10.10;;
10801;SDS011;5453;50.852;7.102;2022-08-19T05:18:35;15.65;;;9.45;;
10801;SDS011;5453;50.852;7.102;2022-08-19T05:21:26;15.65;;;9.02;;
10801;SDS011;5453;50.852;7.102;2022-08-19T05:24:17;15.15;;;9.25;;
10801;SDS011;5453;50.852;7.102;2022-08-19T05:26:51;16.55;;;9.55;;
10801;SDS011;5453;50.852;7.102;2022-08-19T05:29:27;15.35;;;9.57;;
10801;SDS011;5453;50.852;7.102;2022-08-19T05:32:06;15.75;;;9.27;;
10801;SDS011;5453;50.852;7.102;2022-08-19T05:34:41;15.88;;;9.20;;
10801;SDS011;5453;50.852;7.102;2022-08-19T05:37:13;16.42;;;9.85;;
10801;SDS011;5453;50.852;7.102;2022-08-19T05:39:47;17.08;;;9.32;;
10801;SDS011;5453;50.852;7.102;2022-08-19T05:42:20;15.10;;;9.40;;
10801;SDS011;5453;50.852;7.102;2022-08-19T05:44:53;15.00;;;9.23;;
10801;SDS011;5453;50.852;7.102;2022-08-19T05:47:28;16.05;;;9.60;;
10801;SDS011;5453;50.852;7.102;2022-08-19T05:50:01;16.00;;;9.65;;
10801;SDS011;5453;50.852;7.102;2022-08-19T05:52:34;16.38;;;9.38;;
10801;SDS011;5453;50.852;7.102;2022-08-19T05:55:09;18.17;;;10.38;;
10801;SDS011;5453;50.852;7.102;2022-08-19T05:57:43;18.52;;;9.93;;
10801;SDS011;5453;50.852;7.102;2022-08-19T06:00:21;17.70;;;10.10;;
10801;SDS011;5453;50.852;7.102;2022-08-19T06:02:57;17.70;;;11.45;;
10801;SDS011;5453;50.852;7.102;2022-08-19T06:05:33;16.73;;;10.00;;
10801;SDS011;5453;50.852;7.102;2022-08-19T06:08:06;17.33;;;9.68;;
10801;SDS011;5453;50.852;7.102;2022-08-19T06:10:39;18.88;;;10.20;;
10801;SDS011;5453;50.852;7.102;2022-08-19T06:13:12;15.95;;;9.43;;
10801;SDS011;5453;50.852;7.102;2022-08-19T06:15:44;17.45;;;10.05;;
10801;SDS011;5453;50.852;7.102;2022-08-19T06:18:19;16.85;;;9.98;;
10801;SDS011;5453;50.852;7.102;2022-08-19T06:20:52;20.42;;;10.68;;
10801;SDS011;5453;50.852;7.102;2022-08-19T06:23:24;22.13;;;11.65;;
10801;SDS011;5453;50.852;7.102;2022-08-19T06:25:56;19.10;;;11.13;;
10801;SDS011;5453;50.852;7.102;2022-08-19T06:28:29;19.92;;;11.85;;
10801;SDS011;5453;50.852;7.102;2022-08-19T06:31:05;20.27;;;11.02;;
10801;SDS011;5453;50.852;7.102;2022-08-19T06:33:40;23.90;;;12.27;;
10801;SDS011;5453;50.852;7.102;2022-08-19T06:38:52;19.48;;;11.65;;
10801;SDS011;5453;50.852;7.102;2022-08-19T06:41:24;19.73;;;11.38;;
10801;SDS011;5453;50.852;7.102;2022-08-19T06:43:57;21.55;;;11.98;;
10801;SDS011;5453;50.852;7.102;2022-08-19T06:46:30;21.98;;;12.55;;
10801;SDS011;5453;50.852;7.102;2022-08-19T06:49:04;21.90;;;13.00;;
10801;SDS011;5453;50.852;7.102;2022-08-19T06:51:39;25.27;;;13.27;;
10801;SDS011;5453;50.852;7.102;2022-08-19T06:54:13;21.75;;;12.13;;
10801;SDS011;5453;50.852;7.102;2022-08-19T06:56:48;19.77;;;11.60;;
10801;SDS011;5453;50.852;7.102;2022-08-19T06:59:21;20.98;;;12.20;;
10801;SDS011;5453;50.852;7.102;2022-08-19T07:01:57;18.60;;;11.82;;
10801;SDS011;5453;50.852;7.102;2022-08-19T07:04:33;24.50;;;13.88;;
10801;SDS011;5453;50.852;7.102;2022-08-19T07:07:09;17.92;;;10.75;;
10801;SDS011;5453;50.852;7.102;2022-08-19T07:09:45;21.52;;;11.88;;
10801;SDS011;5453;50.852;7.102;2022-08-19T07:12:18;16.52;;;10.23;;
10801;SDS011;5453;50.852;7.102;2022-08-19T07:14:52;17.63;;;9.93;;
10801;SDS011;5453;50.852;7.102;2022-08-19T07:17:25;17.58;;;10.82;;
10801;SDS011;5453;50.852;7.102;2022-08-19T07:19:59;16.63;;;8.93;;
10801;SDS011;5453;50.852;7.102;2022-08-19T07:22:33;17.23;;;9.20;;
10801;SDS011;5453;50.852;7.102;2022-08-19T07:25:06;26.42;;;13.18;;
10801;SDS011;5453;50.852;7.102;2022-08-19T07:27:40;17.90;;;10.15;;
10801;SDS011;5453;50.852;7.102;2022-08-19T07:30:14;13.57;;;8.57;;
10801;SDS011;5453;50.852;7.102;2022-08-19T07:32:48;15.00;;;8.73;;
10801;SDS011;5453;50.852;7.102;2022-08-19T07:35:25;14.55;;;8.73;;
10801;SDS011;5453;50.852;7.102;2022-08-19T07:37:59;13.52;;;8.20;;
10801;SDS011;5453;50.852;7.102;2022-08-19T07:40:34;13.70;;;8.50;;
10801;SDS011;5453;50.852;7.102;2022-08-19T07:43:06;14.77;;;8.55;;
10801;SDS011;5453;50.852;7.102;2022-08-19T07:45:40;11.23;;;6.88;;
10801;SDS011;5453;50.852;7.102;2022-08-19T07:48:13;14.63;;;8.27;;
10801;SDS011;5453;50.852;7.102;2022-08-19T07:50:47;14.45;;;7.88;;
10801;SDS011;5453;50.852;7.102;2022-08-19T07:53:20;13.30;;;8.23;;
10801;SDS011;5453;50.852;7.102;2022-08-19T07:55:54;11.40;;;7.30;;
10801;SDS011;5453;50.852;7.102;2022-08-19T07:58:30;13.10;;;8.10;;
10801;SDS011;5453;50.852;7.102;2022-08-19T08:01:05;12.30;;;7.90;;
10801;SDS011;5453;50.852;7.102;2022-08-19T08:03:41;13.13;;;7.05;;
10801;SDS011;5453;50.852;7.102;2022-08-19T08:06:32;11.23;;;7.10;;
10801;SDS011;5453;50.852;7.102;2022-08-19T08:09:22;14.02;;;8.48;;
10801;SDS011;5453;50.852;7.102;2022-08-19T08:12:00;12.05;;;7.57;;
10801;SDS011;5453;50.852;7.102;2022-08-19T08:14:39;10.93;;;7.03;;
10801;SDS011;5453;50.852;7.102;2022-08-19T08:17:14;13.15;;;6.65;;
10801;SDS011;5453;50.852;7.102;2022-08-19T08:19:49;10.35;;;6.55;;
10801;SDS011;5453;50.852;7.102;2022-08-19T08:22:24;13.98;;;7.78;;
10801;SDS011;5453;50.852;7.102;2022-08-19T08:25:15;16.65;;;7.45;;
10801;SDS011;5453;50.852;7.102;2022-08-19T08:27:52;14.05;;;8.27;;
10801;SDS011;5453;50.852;7.102;2022-08-19T08:30:27;13.98;;;7.47;;
10801;SDS011;5453;50.852;7.102;2022-08-19T08:33:06;11.77;;;6.97;;
10801;SDS011;5453;50.852;7.102;2022-08-19T08:35:39;11.75;;;6.40;;
10801;SDS011;5453;50.852;7.102;2022-08-19T08:38:14;10.98;;;5.97;;
10801;SDS011;5453;50.852;7.102;2022-08-19T08:40:49;8.88;;;4.82;;
10801;SDS011;5453;50.852;7.102;2022-08-19T08:43:27;11.25;;;7.22;;
10801;SDS011;5453;50.852;7.102;2022-08-19T08:46:05;9.52;;;6.22;;
10801;SDS011;5453;50.852;7.102;2022-08-19T08:48:46;9.25;;;5.53;;
10801;SDS011;5453;50.852;7.102;2022-08-19T08:51:26;14.38;;;7.80;;
10801;SDS011;5453;50.852;7.102;2022-08-19T08:54:08;10.77;;;6.25;;
10801;SDS011;5453;50.852;7.102;2022-08-19T08:56:45;12.63;;;6.85;;
10801;SDS011;5453;50.852;7.102;2022-08-19T08:59:20;10.25;;;6.07;;
10801;SDS011;5453;50.852;7.102;2022-08-19T09:01:58;9.27;;;5.20;;
10801;SDS011;5453;50.852;7.102;2022-08-19T09:04:31;8.95;;;5.18;;
10801;SDS011;5453;50.852;7.102;2022-08-19T09:07:15;6.82;;;4.88;;
10801;SDS011;5453;50.852;7.102;2022-08-19T09:10:02;7.97;;;5.00;;
10801;SDS011;5453;50.852;7.102;2022-08-19T09:12:44;9.65;;;4.57;;
10801;SDS011;5453;50.852;7.102;2022-08-19T09:15:29;12.00;;;5.60;;
10801;SDS011;5453;50.852;7.102;2022-08-19T09:18:06;11.57;;;6.57;;
10801;SDS011;5453;50.852;7.102;2022-08-19T09:20:41;13.32;;;6.78;;
10801;SDS011;5453;50.852;7.102;2022-08-19T09:23:14;11.00;;;7.07;;
10801;SDS011;5453;50.852;7.102;2022-08-19T09:28:21;9.82;;;6.13;;
10801;SDS011;5453;50.852;7.102;2022-08-19T09:30:54;13.98;;;8.32;;
10801;SDS011;5453;50.852;7.102;2022-08-19T09:33:26;9.05;;;6.38;;
10801;SDS011;5453;50.852;7.102;2022-08-19T09:36:04;11.38;;;7.13;;
10801;SDS011;5453;50.852;7.102;2022-08-19T09:38:39;10.52;;;7.18;;
10801;SDS011;5453;50.852;7.102;2022-08-19T09:41:15;13.38;;;8.57;;
10801;SDS011;5453;50.852;7.102;2022-08-19T09:43:52;11.90;;;7.72;;
10801;SDS011;5453;50.852;7.102;2022-08-19T09:46:28;13.52;;;8.73;;
10801;SDS011;5453;50.852;7.102;2022-08-19T09:49:01;15.10;;;8.45;;
10801;SDS011;5453;50.852;7.102;2022-08-19T09:51:36;13.48;;;8.73;;
10801;SDS011;5453;50.852;7.102;2022-08-19T09:54:08;12.30;;;6.20;;
10801;SDS011;5453;50.852;7.102;2022-08-19T09:56:42;12.80;;;6.95;;
10801;SDS011;5453;50.852;7.102;2022-08-19T09:59:14;9.68;;;6.13;;
10801;SDS011;5453;50.852;7.102;2022-08-19T10:01:47;12.65;;;7.35;;
10801;SDS011;5453;50.852;7.102;2022-08-19T10:04:19;19.52;;;11.10;;
10801;SDS011;5453;50.852;7.102;2022-08-19T10:06:55;13.52;;;7.97;;
10801;SDS011;5453;50.852;7.102;2022-08-19T10:09:27;16.45;;;9.52;;
10801;SDS011;5453;50.852;7.102;2022-08-19T10:12:01;12.13;;;7.65;;
10801;SDS011;5453;50.852;7.102;2022-08-19T10:14:34;13.27;;;7.90;;
10801;SDS011;5453;50.852;7.102;2022-08-19T10:17:07;11.10;;;7.57;;
10801;SDS011;5453;50.852;7.102;2022-08-19T10:19:39;10.63;;;6.82;;
10801;SDS011;5453;50.852;7.102;2022-08-19T10:22:11;10.77;;;6.90;;
10801;SDS011;5453;50.852;7.102;2022-08-19T10:24:45;10.90;;;6.53;;
10801;SDS011;5453;50.852;7.102;2022-08-19T10:27:19;13.13;;;8.13;;
10801;SDS011;5453;50.852;7.102;2022-08-19T10:29:51;11.40;;;7.03;;
10801;SDS011;5453;50.852;7.102;2022-08-19T10:32:23;13.80;;;8.40;;
10801;SDS011;5453;50.852;7.102;2022-08-19T10:34:55;11.55;;;7.38;;
10801;SDS011;5453;50.852;7.102;2022-08-19T10:37:28;9.95;;;6.85;;
10801;SDS011;5453;50.852;7.102;2022-08-19T10:40:03;10.35;;;6.68;;
10801;SDS011;5453;50.852;7.102;2022-08-19T10:42:42;8.65;;;5.82;;
10801;SDS011;5453;50.852;7.102;2022-08-19T10:45:14;9.18;;;5.80;;
10801;SDS011;5453;50.852;7.102;2022-08-19T10:47:47;9.18;;;6.63;;
10801;SDS011;5453;50.852;7.102;2022-08-19T10:50:19;12.90;;;7.38;;
10801;SDS011;5453;50.852;7.102;2022-08-19T10:53:09;12.77;;;8.00;;
10801;SDS011;5453;50.852;7.102;2022-08-19T10:55:44;12.23;;;7.70;;
10801;SDS011;5453;50.852;7.102;2022-08-19T10:58:35;10.73;;;6.88;;
10801;SDS011;5453;50.852;7.102;2022-08-19T11:01:08;8.98;;;6.03;;
10801;SDS011;5453;50.852;7.102;2022-08-19T11:03:40;9.40;;;5.80;;
10801;SDS011;5453;50.852;7.102;2022-08-19T11:06:15;11.25;;;6.95;;
10801;SDS011;5453;50.852;7.102;2022-08-19T11:08:48;10.52;;;6.55;;
10801;SDS011;5453;50.852;7.102;2022-08-19T11:11:20;9.93;;;6.68;;
10801;SDS011;5453;50.852;7.102;2022-08-19T11:13:54;10.00;;;7.05;;
10801;SDS011;5453;50.852;7.102;2022-08-19T11:16:27;8.98;;;6.30;;
10801;SDS011;5453;50.852;7.102;2022-08-19T11:19:01;8.93;;;6.22;;
10801;SDS011;5453;50.852;7.102;2022-08-19T11:21:35;9.90;;;6.57;;
10801;SDS011;5453;50.852;7.102;2022-08-19T11:24:11;9.57;;;6.13;;
10801;SDS011;5453;50.852;7.102;2022-08-19T11:26:48;8.68;;;5.63;;
10801;SDS011;5453;50.852;7.102;2022-08-19T11:29:31;10.40;;;7.13;;
10801;SDS011;5453;50.852;7.102;2022-08-19T11:32:06;10.70;;;6.80;;
10801;SDS011;5453;50.852;7.102;2022-08-19T11:34:41;9.10;;;6.10;;
10801;SDS011;5453;50.852;7.102;2022-08-19T11:37:14;8.65;;;6.20;;
10801;SDS011;5453;50.852;7.102;2022-08-19T11:39:46;7.88;;;5.85;;
10801;SDS011;5453;50.852;7.102;2022-08-19T11:42:19;8.82;;;6.70;;
10801;SDS011;5453;50.852;7.102;2022-08-19T11:45:11;9.90;;;6.63;;
10801;SDS011;5453;50.852;7.102;2022-08-19T11:47:44;8.50;;;5.85;;
10801;SDS011;5453;50.852;7.102;2022-08-19T11:50:17;7.88;;;5.78;;
10801;SDS011;5453;50.852;7.102;2022-08-19T11:52:52;10.68;;;6.63;;
10801;SDS011;5453;50.852;7.102;2022-08-19T11:55:26;15.35;;;7.20;;
10801;SDS011;5453;50.852;7.102;2022-08-19T11:57:59;14.57;;;8.63;;
10801;SDS011;5453;50.852;7.102;2022-08-19T12:00:33;9.20;;;6.15;;
10801;SDS011;5453;50.852;7.102;2022-08-19T12:03:06;9.35;;;6.60;;
10801;SDS011;5453;50.852;7.102;2022-08-19T12:05:40;7.68;;;5.90;;
10801;SDS011;5453;50.852;7.102;2022-08-19T12:08:13;8.45;;;5.78;;
10801;SDS011;5453;50.852;7.102;2022-08-19T12:10:46;7.85;;;5.22;;
10801;SDS011;5453;50.852;7.102;2022-08-19T12:13:18;8.20;;;5.80;;
10801;SDS011;5453;50.852;7.102;2022-08-19T12:15:52;8.48;;;5.35;;
10801;SDS011;5453;50.852;7.102;2022-08-19T12:18:25;6.38;;;4.90;;
10801;SDS011;5453;50.852;7.102;2022-08-19T12:20:58;8.38;;;5.70;;
10801;SDS011;5453;50.852;7.102;2022-08-19T12:23:31;8.00;;;5.13;;
10801;SDS011;5453;50.852;7.102;2022-08-19T12:26:04;8.35;;;5.55;;
10801;SDS011;5453;50.852;7.102;2022-08-19T12:28:36;8.20;;;5.72;;
10801;SDS011;5453;50.852;7.102;2022-08-19T12:31:10;7.15;;;4.88;;
10801;SDS011;5453;50.852;7.102;2022-08-19T12:36:15;10.20;;;6.38;;
10801;SDS011;5453;50.852;7.102;2022-08-19T12:38:48;9.05;;;6.20;;
10801;SDS011;5453;50.852;7.102;2022-08-19T12:41:20;7.20;;;5.57;;
10801;SDS011;5453;50.852;7.102;2022-08-19T12:43:53;9.15;;;5.28;;
10801;SDS011;5453;50.852;7.102;2022-08-19T12:46:26;7.90;;;5.28;;
10801;SDS011;5453;50.852;7.102;2022-08-19T12:48:59;9.13;;;5.80;;
10801;SDS011;5453;50.852;7.102;2022-08-19T12:51:31;8.50;;;6.13;;
10801;SDS011;5453;50.852;7.102;2022-08-19T12:54:03;9.20;;;5.40;;
10801;SDS011;5453;50.852;7.102;2022-08-19T12:56:36;7.60;;;5.20;;
10801;SDS011;5453;50.852;7.102;2022-08-19T12:59:08;7.57;;;5.50;;
10801;SDS011;5453;50.852;7.102;2022-08-19T13:01:42;6.75;;;4.60;;
10801;SDS011;5453;50.852;7.102;2022-08-19T13:04:15;9.50;;;6.00;;
10801;SDS011;5453;50.852;7.102;2022-08-19T13:06:47;7.57;;;5.50;;
10801;SDS011;5453;50.852;7.102;2022-08-19T13:09:19;6.30;;;4.72;;
10801;SDS011;5453;50.852;7.102;2022-08-19T13:11:52;7.40;;;5.20;;
10801;SDS011;5453;50.852;7.102;2022-08-19T13:14:24;8.73;;;4.88;;
10801;SDS011;5453;50.852;7.102;2022-08-19T13:16:57;7.18;;;4.68;;
10801;SDS011;5453;50.852;7.102;2022-08-19T13:19:29;6.75;;;4.22;;
10801;SDS011;5453;50.852;7.102;2022-08-19T13:22:02;5.90;;;4.18;;
10801;SDS011;5453;50.852;7.102;2022-08-19T13:24:34;5.25;;;3.67;;
10801;SDS011;5453;50.852;7.102;2022-08-19T13:27:07;6.20;;;4.30;;
10801;SDS011;5453;50.852;7.102;2022-08-19T13:29:39;6.07;;;3.92;;
10801;SDS011;5453;50.852;7.102;2022-08-19T13:32:31;5.65;;;4.00;;
10801;SDS011;5453;50.852;7.102;2022-08-19T13:35:20;7.60;;;4.05;;
10801;SDS011;5453;50.852;7.102;2022-08-19T13:37:52;7.97;;;4.80;;
10801;SDS011;5453;50.852;7.102;2022-08-19T13:40:25;10.13;;;5.88;;
10801;SDS011;5453;50.852;7.102;2022-08-19T13:42:59;9.60;;;5.80;;
10801;SDS011;5453;50.852;7.102;2022-08-19T13:45:33;8.90;;;5.53;;
10801;SDS011;5453;50.852;7.102;2022-08-19T13:48:07;8.32;;;6.00;;
10801;SDS011;5453;50.852;7.102;2022-08-19T13:50:41;8.25;;;5.32;;
10801;SDS011;5453;50.852;7.102;2022-08-19T13:53:16;8.65;;;5.18;;
10801;SDS011;5453;50.852;7.102;2022-08-19T13:55:49;9.68;;;5.30;;
10801;SDS011;5453;50.852;7.102;2022-08-19T13:58:23;8.27;;;5.03;;
10801;SDS011;5453;50.852;7.102;2022-08-19T14:00:55;6.90;;;4.50;;
10801;SDS011;5453;50.852;7.102;2022-08-19T14:03:30;7.20;;;4.40;;
10801;SDS011;5453;50.852;7.102;2022-08-19T14:06:02;7.57;;;4.30;;
10801;SDS011;5453;50.852;7.102;2022-08-19T14:08:35;7.05;;;4.45;;
10801;SDS011;5453;50.852;7.102;2022-08-19T14:11:09;8.30;;;4.45;;
10801;SDS011;5453;50.852;7.102;2022-08-19T14:13:42;7.18;;;4.03;;
10801;SDS011;5453;50.852;7.102;2022-08-19T14:16:14;7.32;;;4.22;;
10801;SDS011;5453;50.852;7.102;2022-08-19T14:18:48;6.82;;;4.22;;
10801;SDS011;5453;50.852;7.102;2022-08-19T14:21:20;6.57;;;3.92;;
10801;SDS011;5453;50.852;7.102;2022-08-19T14:23:55;6.22;;;3.83;;
10801;SDS011;5453;50.852;7.102;2022-08-19T14:26:27;6.22;;;4.00;;
10801;SDS011;5453;50.852;7.102;2022-08-19T14:28:59;5.53;;;3.42;;
10801;SDS011;5453;50.852;7.102;2022-08-19T14:31:31;9.73;;;4.85;;
10801;SDS011;5453;50.852;7.102;2022-08-19T14:34:05;7.55;;;4.13;;
10801;SDS011;5453;50.852;7.102;2022-08-19T14:36:37;6.82;;;4.32;;
10801;SDS011;5453;50.852;7.102;2022-08-19T14:39:09;6.07;;;4.13;;
10801;SDS011;5453;50.852;7.102;2022-08-19T14:41:41;6.88;;;4.35;;
10801;SDS011;5453;50.852;7.102;2022-08-19T14:44:15;6.38;;;3.95;;
10801;SDS011;5453;50.852;7.102;2022-08-19T14:46:47;7.28;;;4.10;;
10801;SDS011;5453;50.852;7.102;2022-08-19T14:49:20;7.38;;;4.50;;
10801;SDS011;5453;50.852;7.102;2022-08-19T14:51:53;8.30;;;4.35;;
10801;SDS011;5453;50.852;7.102;2022-08-19T14:54:25;6.88;;;4.25;;
10801;SDS011;5453;50.852;7.102;2022-08-19T14:56:57;6.70;;;4.25;;
10801;SDS011;5453;50.852;7.102;2022-08-19T14:59:29;9.80;;;4.00;;
10801;SDS011;5453;50.852;7.102;2022-08-19T15:02:01;6.53;;;3.90;;
10801;SDS011;5453;50.852;7.102;2022-08-19T15:04:35;6.93;;;4.30;;
10801;SDS011;5453;50.852;7.102;2022-08-19T15:09:39;6.10;;;4.13;;
10801;SDS011;5453;50.852;7.102;2022-08-19T15:12:12;5.95;;;3.53;;
10801;SDS011;5453;50.852;7.102;2022-08-19T15:14:44;6.05;;;4.13;;
10801;SDS011;5453;50.852;7.102;2022-08-19T15:17:20;6.10;;;3.92;;
10801;SDS011;5453;50.852;7.102;2022-08-19T15:19:53;6.22;;;4.00;;
10801;SDS011;5453;50.852;7.102;2022-08-19T15:22:26;6.30;;;3.90;;
10801;SDS011;5453;50.852;7.102;2022-08-19T15:24:58;7.78;;;3.75;;
10801;SDS011;5453;50.852;7.102;2022-08-19T15:27:31;7.38;;;3.80;;
10801;SDS011;5453;50.852;7.102;2022-08-19T15:30:04;10.05;;;3.72;;
10801;SDS011;5453;50.852;7.102;2022-08-19T15:35:11;6.78;;;3.50;;
10801;SDS011;5453;50.852;7.102;2022-08-19T15:37:44;4.43;;;2.90;;
10801;SDS011;5453;50.852;7.102;2022-08-19T15:40:17;5.53;;;3.10;;
10801;SDS011;5453;50.852;7.102;2022-08-19T15:42:51;4.53;;;2.80;;
10801;SDS011;5453;50.852;7.102;2022-08-19T15:45:23;4.70;;;2.50;;
10801;SDS011;5453;50.852;7.102;2022-08-19T15:48:03;3.90;;;2.20;;
10801;SDS011;5453;50.852;7.102;2022-08-19T15:53:09;3.75;;;2.30;;
10801;SDS011;5453;50.852;7.102;2022-08-19T15:55:44;3.85;;;2.47;;